Latest Weather Observations for Pirlangimpi

IDD60801

Issued at 4:31 pm CST Friday 3 December 2021 (issued every 10 minutes, with the page automatically refreshed every 10 minutes)

About weather observations | Map of weather stations | Latest weather observations for NT | Other Formats
Station Details ID: 014142 Name: PIRLANGIMPI AIRPORT Lat: -11.40 Lon: 130.42 Height: 18.3 m
Data from the previous 72 hours. | See also: Recent months at Pirlangimpi
Date/Time
CST
Temp
°C
App
Temp
°C
Dew
Point
°C
Rel
Hum
%
Delta-T
°C
Wind Press
QNH
hPa
Press
MSL
hPa
Rain since
9am
mm
Dir  Spd
km/h
Gust
km/h
Spd
kts
Gust
kts
03/04:30pm 26.3 31.7 24.5 90 1.2 W 4 11 2 6 1006.3 1006.2 26.0
03/04:00pm 26.0 31.2 24.2 90 1.2 W 4 7 2 4 1006.4 1006.3 26.0
03/03:30pm 25.7 30.9 24.8 95 0.6 SW 6 7 3 4 1006.9 1006.8 26.0
03/03:00pm 25.4 27.0 23.8 91 1.1 S 22 37 12 20 1007.2 1007.1 25.6
03/02:45pm 25.4 27.3 22.1 82 2.2 SSE 15 37 8 20 1008.3 1008.2 11.2
03/02:30pm 30.4 33.8 24.1 69 4.4 SSW 13 17 7 9 1007.0 1006.9 0.0
03/02:00pm 34.7 40.0 25.8 60 6.4 NW 9 19 5 10 1007.0 1006.9 0.0
03/01:30pm 35.1 40.0 25.3 57 7.0 NW 9 15 5 8 1007.4 1007.3 0.0
03/01:00pm 34.1 38.8 24.9 58 6.5 NW 9 13 5 7 1007.8 1007.7 0.0
03/12:30pm 33.6 38.3 23.9 57 6.8 W 6 9 3 5 1008.3 1008.2 0.0
03/12:00pm 33.7 38.6 24.3 58 6.6 WNW 6 9 3 5 1008.7 1008.6 0.0
03/11:30am 32.7 38.2 24.7 62 5.6 W 4 6 2 3 1009.1 1009.0 0.0
03/11:00am 32.6 38.2 24.9 64 5.4 NW 4 6 2 3 1009.3 1009.2 0.0
03/10:30am 32.7 39.6 26.3 69 4.6 NW 2 6 1 3 1009.6 1009.5 0.0
03/10:00am 32.1 38.7 25.2 67 4.9 CALM 0 0 0 0 1009.8 1009.7 0.0
03/09:30am 31.9 38.4 26.2 72 4.1 ESE 4 4 2 2 1009.8 1009.7 0.0
03/09:00am 31.3 37.6 25.4 71 4.2 SSW 2 7 1 4 1009.7 1009.6 0.0
03/08:30am 31.6 37.2 25.5 70 4.3 SSW 6 9 3 5 1009.4 1009.3 0.0
03/08:00am 30.9 37.1 26.4 77 3.2 SSW 6 9 3 5 1009.0 1008.9 0.0
03/07:30am 29.6 37.6 27.4 88 1.6 CALM 0 7 0 4 1008.4 1008.3 0.0
03/07:00am 27.5 35.3 27.0 97 0.4 CALM 0 0 0 0 1008.1 1008.0 0.0
03/06:30am 26.6 33.6 25.9 96 0.5 CALM 0 0 0 0 1007.7 1007.6 0.0
03/06:00am 26.5 33.3 25.6 95 0.6 CALM 0 0 0 0 1007.3 1007.2 0.0
03/05:30am 26.5 33.3 25.6 95 0.6 CALM 0 0 0 0 1007.3 1007.2 0.0
03/05:00am 26.6 33.5 25.7 95 0.6 CALM 0 0 0 0 1007.2 1007.1 0.0
03/04:30am 26.8 33.8 25.9 95 0.6 CALM 0 0 0 0 1006.9 1006.8 0.0
03/04:00am 26.8 33.8 25.8 94 0.7 CALM 0 2 0 1 1006.9 1006.8 0.0
03/03:30am 26.9 33.6 25.9 94 0.7 NE 2 4 1 2 1007.1 1007.0 0.0
03/03:00am 26.9 33.2 25.9 94 0.7 NE 4 6 2 3 1007.2 1007.1 0.0
03/02:30am 27.1 33.4 25.9 93 0.8 NE 4 7 2 4 1007.2 1007.1 0.0
03/02:00am 27.2 34.3 26.0 93 0.8 CALM 0 4 0 2 1007.5 1007.4 0.0
03/01:30am 27.4 34.5 26.0 92 1.0 CALM 0 4 0 2 1007.7 1007.6 0.0
03/01:00am 27.7 34.9 26.1 91 1.1 CALM 0 2 0 1 1008.0 1007.9 0.0
03/12:30am 28.0 35.1 26.0 89 1.4 CALM 0 0 0 0 1008.5 1008.4 0.0
03/12:00am 28.5 35.7 26.1 87 1.7 CALM 0 0 0 0 1009.0 1008.9 0.0
 
Date/Time
CST
Temp
°C
App
Temp
°C
Dew
Point
°C
Rel
Hum
%
Delta-T
°C
Wind Press
QNH
hPa
Press
MSL
hPa
Rain since
9am
mm
Dir  Spd
km/h
Gust
km/h
Spd
kts
Gust
kts
02/11:30pm 28.9 36.1 26.1 85 2.0 CALM 0 6 0 3 1008.9 1008.8 0.0
02/11:00pm 28.7 35.5 26.1 86 1.8 WNW 2 6 1 3 1008.8 1008.7 0.0
02/10:30pm 28.8 35.5 26.0 85 2.0 WSW 2 6 1 3 1009.2 1009.1 0.0
02/10:00pm 29.0 35.8 26.2 85 2.0 WSW 2 6 1 3 1009.2 1009.1 0.0
02/09:30pm 28.8 35.4 25.8 84 2.1 WSW 2 4 1 2 1009.0 1008.9 0.0
02/09:00pm 29.0 35.5 25.6 82 2.4 WSW 2 6 1 3 1008.9 1008.8 0.0
02/08:30pm 29.4 35.6 25.8 81 2.6 WSW 4 6 2 3 1008.5 1008.4 0.0
02/08:00pm 29.5 36.0 25.7 80 2.7 WSW 2 6 1 3 1008.4 1008.3 0.0
02/07:30pm 29.6 35.9 25.4 78 3.0 WSW 2 6 1 3 1008.3 1008.2 0.0
02/07:00pm 29.8 35.7 24.7 74 3.6 WNW 2 4 1 2 1007.8 1007.7 0.0
02/06:30pm 30.1 35.5 23.8 69 4.4 WNW 2 6 1 3 1007.4 1007.3 0.0
02/06:00pm 30.3 34.8 23.7 68 4.6 WNW 6 9 3 5 1007.0 1006.9 0.0
02/05:30pm 29.7 33.2 22.2 64 5.1 NW 7 17 4 9 1006.6 1006.5 0.0
02/05:00pm 32.2 38.0 25.8 69 4.6 NW 6 13 3 7 1006.7 1006.6 0.0
02/04:30pm 33.9 39.4 25.6 62 5.9 WSW 7 15 4 8 1006.1 1006.0 0.0
02/04:00pm 33.9 39.2 25.9 63 5.7 WSW 9 17 5 9 1006.1 1006.0 0.0
02/03:30pm 34.2 39.7 25.6 61 6.2 WSW 7 15 4 8 1006.4 1006.3 0.0
02/03:00pm 34.7 39.4 24.9 56 7.0 SW 9 17 5 9 1006.5 1006.4 0.0
02/02:30pm 34.0 38.9 24.6 58 6.6 WSW 7 17 4 9 1006.9 1006.8 0.0
02/02:00pm 34.3 39.5 24.8 57 6.7 W 6 15 3 8 1007.2 1007.1 0.0
02/01:30pm 34.7 38.7 23.7 52 7.7 SW 9 17 5 9 1007.5 1007.4 0.0
02/01:00pm 34.4 38.4 23.7 53 7.5 SW 9 19 5 10 1008.1 1008.0 0.0
02/12:30pm 34.7 38.1 22.7 49 8.3 SW 9 15 5 8 1008.6 1008.5 0.0
02/12:00pm 34.7 38.3 23.7 52 7.7 SSW 11 17 6 9 1008.8 1008.7 0.0
02/11:30am 34.1 38.3 24.1 56 7.0 SW 9 15 5 8 1009.1 1009.0 0.0
02/11:00am 33.9 37.4 23.6 55 7.2 SSW 11 17 6 9 1009.1 1009.0 0.0
02/10:30am 33.3 37.5 24.7 60 6.1 SSW 11 15 6 8 1009.2 1009.1 0.0
02/10:00am 32.5 38.1 26.3 70 4.4 SSW 9 17 5 9 1009.5 1009.4 0.0
02/09:30am 31.5 37.5 26.1 73 3.9 SSW 6 9 3 5 1009.6 1009.5 0.0
02/09:00am 30.9 37.0 26.2 76 3.4 SSW 6 9 3 5 1009.5 1009.4 0.0
02/08:30am 30.2 36.2 26.1 79 2.9 SSW 6 9 3 5 1009.1 1009.0 0.0
02/08:00am 29.7 35.6 25.9 80 2.7 S 6 7 3 4 1008.9 1008.8 0.0
02/07:30am 28.9 35.4 26.3 86 1.9 SW 4 7 2 4 1008.7 1008.6 0.0
02/07:00am 27.3 34.2 25.7 91 1.1 CALM 0 6 0 3 1008.3 1008.2 0.0
02/06:30am 27.1 33.6 25.1 89 1.4 CALM 0 0 0 0 1007.8 1007.7 0.0
02/06:00am 27.5 33.3 25.1 87 1.7 SW 4 6 2 3 1007.3 1007.2 0.0
02/05:30am 27.2 33.4 25.2 89 1.4 SW 2 7 1 4 1007.0 1006.9 0.0
02/05:00am 26.8 33.3 25.0 90 1.3 CALM 0 2 0 1 1006.8 1006.7 0.0
02/04:30am 27.3 33.8 25.1 88 1.5 CALM 0 0 0 0 1006.5 1006.4 0.0
02/04:00am 27.7 34.1 25.5 88 1.5 WSW 2 4 1 2 1006.4 1006.3 0.0
02/03:30am 27.3 34.1 26.1 93 0.9 W 2 6 1 3 1006.5 1006.4 0.0
02/03:00am 26.7 33.5 25.5 93 0.8 CALM 0 0 0 0 1006.8 1006.7 0.0
02/02:30am 26.8 33.0 25.2 91 1.1 NNW 2 4 1 2 1007.1 1007.0 0.0
02/02:00am 27.3 33.6 25.3 89 1.4 W 2 7 1 4 1007.0 1006.9 0.0
02/01:30am 27.3 33.4 25.1 88 1.5 NW 2 4 1 2 1007.3 1007.2 0.0
02/01:00am 27.4 33.7 25.4 89 1.4 WNW 2 4 1 2 1007.7 1007.6 0.0
02/12:30am 27.5 33.9 25.5 89 1.4 WSW 2 6 1 3 1007.9 1007.8 0.0
02/12:00am 26.8 33.4 25.2 91 1.1 CALM 0 4 0 2 1008.4 1008.3 0.0
 
Date/Time
CST
Temp
°C
App
Temp
°C
Dew
Point
°C
Rel
Hum
%
Delta-T
°C
Wind Press
QNH
hPa
Press
MSL
hPa
Rain since
9am
mm
Dir  Spd
km/h
Gust
km/h
Spd
kts
Gust
kts
01/11:30pm 27.0 33.3 24.8 88 1.5 CALM 0 0 0 0 1008.7 1008.6 0.0
01/11:00pm 27.3 33.8 25.1 88 1.5 CALM 0 0 0 0 1008.9 1008.8 0.0
01/10:30pm 27.2 33.8 25.2 89 1.4 CALM 0 2 0 1 1009.0 1008.9 0.0
01/10:00pm 26.9 33.4 25.1 90 1.3 CALM 0 2 0 1 1008.8 1008.7 0.0
01/09:30pm 26.8 33.0 24.6 88 1.5 CALM 0 0 0 0 1008.7 1008.6 0.0
01/09:00pm 27.1 33.4 24.7 87 1.7 CALM 0 4 0 2 1008.4 1008.3 0.0
01/08:30pm 26.9 33.3 24.9 89 1.4 CALM 0 0 0 0 1008.0 1007.9 0.0
01/08:00pm 27.1 32.7 24.2 84 2.0 NNW 2 4 1 2 1007.8 1007.7 0.0
01/07:30pm 27.5 33.3 23.9 81 2.5 CALM 0 0 0 0 1007.7 1007.6 0.0
01/07:00pm 27.9 33.7 23.9 79 2.8 CALM 0 2 0 1 1007.4 1007.3 0.0
01/06:30pm 28.3 33.2 23.7 76 3.2 ESE 4 4 2 2 1007.2 1007.1 0.0
01/06:00pm 28.3 32.5 23.2 74 3.5 NE 6 11 3 6 1006.8 1006.7 0.0
01/05:30pm 28.8 32.6 22.8 70 4.1 NE 7 15 4 8 1006.9 1006.8 0.0
01/05:00pm 30.3 35.5 23.5 67 4.7 ENE 2 6 1 3 1006.6 1006.5 0.0
01/04:30pm 29.9 34.6 22.6 65 5.0 E 2 6 1 3 1006.6 1006.5 0.0
01/04:00pm 28.6 33.3 22.6 70 4.1 NW 2 6 1 3 1006.4 1006.3 0.0
01/03:30pm 27.8 32.7 23.0 75 3.3 WNW 2 4 1 2 1006.2 1006.1 0.0
01/03:00pm 27.1 31.1 23.1 79 2.7 NW 7 17 4 9 1006.7 1006.6 0.0
01/02:30pm 27.6 31.1 22.1 72 3.7 N 7 15 4 8 1007.4 1007.3 0.0
01/02:00pm 29.9 33.4 21.8 62 5.5 SW 6 13 3 7 1007.8 1007.7 0.0
01/01:30pm 31.1 30.7 22.4 60 5.9 SSW 28 44 15 24 1007.2 1007.1 0.0
01/01:27pm 32.0 33.8 23.5 60 5.9 SSW 20 43 11 23 1007.3 1007.2 0.0
01/01:00pm 34.5 39.8 25.0 57 6.7 WNW 6 11 3 6 1007.5 1007.4 0.0
01/12:30pm 33.8 38.6 24.4 58 6.6 WNW 7 11 4 6 1008.0 1007.9 0.0
01/12:00pm 33.5 38.9 25.2 62 5.9 W 6 9 3 5 1008.4 1008.3 0.0
01/11:30am 32.2 37.8 25.5 67 4.8 WNW 6 9 3 5 1009.1 1009.0 0.0
01/11:00am 31.5 37.6 25.6 71 4.2 W 4 7 2 4 1009.4 1009.3 0.0
01/10:30am 31.5 38.3 26.1 73 3.9 S 2 6 1 3 1009.6 1009.5 0.0
01/10:00am 30.5 36.6 26.2 78 3.1 S 6 7 3 4 1009.6 1009.5 0.0
01/09:30am 30.1 35.9 26.1 79 2.9 SSW 7 9 4 5 1009.4 1009.3 0.0
01/09:00am 30.1 36.9 26.1 79 2.9 ESE 2 4 1 2 1009.7 1009.6 0.2
01/08:30am 28.8 35.1 26.0 85 2.0 E 4 7 2 4 1009.6 1009.5 0.2
01/08:00am 27.9 34.2 25.9 89 1.4 ENE 4 6 2 3 1009.2 1009.1 0.2
01/07:30am 26.7 33.8 26.0 96 0.5 CALM 0 0 0 0 1008.6 1008.5 0.2
01/07:00am 25.9 32.4 25.0 95 0.6 CALM 0 2 0 1 1008.1 1008.0 0.2
01/06:30am 25.7 31.3 24.8 95 0.6 NE 4 6 2 3 1007.8 1007.7 0.2
01/06:00am 25.9 32.2 24.7 93 0.8 CALM 0 0 0 0 1007.4 1007.3 0.2
01/05:30am 26.0 32.2 24.6 92 1.0 CALM 0 0 0 0 1007.1 1007.0 0.2
01/05:00am 26.4 32.7 24.8 91 1.1 CALM 0 0 0 0 1006.7 1006.6 0.2
01/04:30am 27.0 33.3 24.8 88 1.5 CALM 0 0 0 0 1006.3 1006.2 0.2
01/04:00am 27.7 33.8 25.1 86 1.8 WNW 2 6 1 3 1006.0 1005.9 0.2
01/03:30am 27.8 33.9 25.0 85 2.0 WNW 2 4 1 2 1006.0 1005.9 0.2
01/03:00am 28.1 34.2 25.1 84 2.1 NW 2 9 1 5 1005.6 1005.5 0.2
01/02:30am 28.2 34.3 25.0 83 2.2 WNW 2 4 1 2 1005.8 1005.7 0.2
01/02:00am 28.4 34.2 25.2 83 2.2 W 4 9 2 5 1006.2 1006.1 0.2
01/01:30am 28.4 34.1 25.0 82 2.4 WNW 4 6 2 3 1006.7 1006.6 0.2
01/01:00am 28.6 34.4 25.2 82 2.4 WNW 4 7 2 4 1006.9 1006.8 0.2
01/12:30am 28.3 34.2 25.3 84 2.1 NW 4 9 2 5 1007.2 1007.1 0.2
01/12:00am 28.1 33.9 25.1 84 2.1 NW 4 6 2 3 1007.3 1007.2 0.2
 
Date/Time
CST
Temp
°C
App
Temp
°C
Dew
Point
°C
Rel
Hum
%
Delta-T
°C
Wind Press
QNH
hPa
Press
MSL
hPa
Rain since
9am
mm
Dir  Spd
km/h
Gust
km/h
Spd
kts
Gust
kts
30/11:30pm 27.9 33.7 25.1 85 2.0 NW 4 7 2 4 1007.5 1007.4 0.2
30/11:00pm 28.3 34.4 25.1 83 2.2 W 2 6 1 3 1007.7 1007.6 0.2
30/10:30pm 28.1 33.7 24.9 83 2.2 W 4 9 2 5 1007.8 1007.7 0.2
30/10:00pm 28.2 34.2 24.8 82 2.4 WSW 2 6 1 3 1007.9 1007.8 0.2
30/09:30pm 28.5 34.3 25.1 82 2.4 WSW 4 7 2 4 1007.8 1007.7 0.2
30/09:00pm 28.2 34.2 24.8 82 2.4 WNW 2 6 1 3 1007.3 1007.2 0.2
30/08:30pm 28.7 34.2 24.7 79 2.8 W 4 7 2 4 1006.8 1006.7 0.2
30/08:00pm 28.9 34.7 24.5 77 3.1 W 2 6 1 3 1006.6 1006.5 0.2
30/07:30pm 29.2 34.6 24.5 76 3.3 W 4 9 2 5 1006.2 1006.1 0.2
30/07:00pm 29.9 35.2 24.3 72 3.9 WSW 4 6 2 3 1006.0 1005.9 0.2
30/06:30pm 30.6 36.1 24.0 68 4.6 WSW 2 6 1 3 1005.9 1005.8 0.2
30/06:00pm 31.8 37.2 23.3 60 5.9 CALM 0 4 0 2 1005.7 1005.6 0.2
30/05:30pm 31.4 36.2 23.5 63 5.5 NNE 4 6 2 3 1005.3 1005.2 0.2
30/05:00pm 31.5 36.3 22.8 60 6.0 SW 2 6 1 3 1005.3 1005.2 0.2

Other formats

Comma delimited format used in spreadsheet applications
http://www.bom.gov.au/fwo/IDD60801/IDD60801.94119.axf

JavaScript Object Notation format (JSON) in row-major order
http://www.bom.gov.au/fwo/IDD60801/IDD60801.94119.json

Data quality

Most of these data are generated automatically and are frequently updated. Quality checks on data are not normally performed. It is possible for incorrect values to appear. Refer to information at About Latest Weather Observations and please check the disclaimer before using these data.